createdAt,value
2023-04-22T00:01:19.346Z,8.90
2023-04-22T00:03:46.051Z,9.15
2023-04-22T00:06:13.351Z,8.63
2023-04-22T00:08:40.100Z,9.27
2023-04-22T00:11:06.631Z,8.88
2023-04-22T00:13:33.781Z,8.90
2023-04-22T00:16:00.360Z,8.70
2023-04-22T00:18:27.363Z,8.57
2023-04-22T00:20:53.754Z,9.05
2023-04-22T00:23:20.168Z,7.40
2023-04-22T00:25:46.873Z,8.20
2023-04-22T00:28:13.349Z,8.10
2023-04-22T00:30:39.750Z,8.63
2023-04-22T00:33:06.282Z,8.25
2023-04-22T00:35:32.843Z,9.10
2023-04-22T00:37:59.317Z,9.45
2023-04-22T00:40:25.756Z,10.00
2023-04-22T00:42:52.713Z,9.90
2023-04-22T00:45:20.849Z,9.77
2023-04-22T00:47:48.917Z,9.40
2023-04-22T00:50:16.159Z,10.10
2023-04-22T00:52:42.668Z,10.38
2023-04-22T00:55:10.335Z,10.82
2023-04-22T00:57:37.907Z,10.50
2023-04-22T01:00:06.094Z,10.48
2023-04-22T01:02:33.088Z,10.35
2023-04-22T01:05:00.985Z,9.75
2023-04-22T01:07:27.578Z,10.23
2023-04-22T01:09:54.050Z,10.95
2023-04-22T01:12:20.459Z,10.65
2023-04-22T01:14:46.933Z,10.20
2023-04-22T01:17:16.379Z,11.23
2023-04-22T01:19:43.726Z,10.30
2023-04-22T01:22:13.465Z,10.70
2023-04-22T01:24:40.369Z,10.77
2023-04-22T01:27:07.921Z,11.55
2023-04-22T01:29:36.593Z,10.82
2023-04-22T01:32:03.669Z,10.68
2023-04-22T01:34:31.515Z,10.18
2023-04-22T01:36:58.286Z,11.32
2023-04-22T01:39:24.790Z,11.35
2023-04-22T01:41:51.467Z,11.35
2023-04-22T01:44:19.588Z,10.88
2023-04-22T01:46:46.002Z,10.88
2023-04-22T01:49:12.433Z,11.68
2023-04-22T01:51:38.923Z,10.98
2023-04-22T01:54:05.991Z,11.05
2023-04-22T01:56:32.417Z,11.45
2023-04-22T01:58:58.882Z,11.13
2023-04-22T02:01:25.364Z,11.25
2023-04-22T02:03:51.950Z,10.93
2023-04-22T02:06:18.752Z,10.30
2023-04-22T02:08:45.186Z,11.63
2023-04-22T02:11:12.883Z,10.32
2023-04-22T02:13:40.733Z,10.32
2023-04-22T02:16:08.032Z,10.50
2023-04-22T02:18:35.127Z,10.75
2023-04-22T02:21:01.832Z,10.05
2023-04-22T02:23:28.917Z,10.30
2023-04-22T02:25:55.854Z,9.82
2023-04-22T02:28:22.673Z,10.05
2023-04-22T02:30:49.166Z,9.20
2023-04-22T02:33:15.641Z,8.98
2023-04-22T02:35:42.069Z,9.15
2023-04-22T02:38:08.516Z,8.43
2023-04-22T02:40:35.369Z,9.05
2023-04-22T02:43:02.078Z,8.95
2023-04-22T02:45:28.530Z,8.15
2023-04-22T02:47:55.712Z,7.95
2023-04-22T02:50:22.252Z,8.43
2023-04-22T02:52:48.754Z,8.57
2023-04-22T02:55:15.578Z,8.68
2023-04-22T02:57:42.053Z,8.07
2023-04-22T03:00:09.124Z,8.52
2023-04-22T03:02:36.288Z,7.72
2023-04-22T03:05:16.705Z,7.63
2023-04-22T03:07:44.451Z,7.75
2023-04-22T03:10:11.451Z,7.47
2023-04-22T03:12:38.892Z,8.05
2023-04-22T03:15:05.939Z,8.13
2023-04-22T03:17:32.447Z,8.27
2023-04-22T03:20:01.697Z,7.85
2023-04-22T03:22:29.112Z,7.80
2023-04-22T03:24:58.181Z,7.20
2023-04-22T03:27:25.092Z,7.70
2023-04-22T03:29:51.536Z,7.28
2023-04-22T03:32:18.089Z,7.55
2023-04-22T03:34:44.810Z,7.65
2023-04-22T03:37:11.659Z,7.28
2023-04-22T03:39:38.655Z,7.43
2023-04-22T03:42:06.847Z,7.47
2023-04-22T03:44:35.127Z,7.70
2023-04-22T03:47:02.432Z,7.32
2023-04-22T03:49:35.365Z,7.90
2023-04-22T03:52:02.032Z,7.65
2023-04-22T03:54:28.590Z,7.68
2023-04-22T03:56:55.617Z,7.50
2023-04-22T03:59:23.302Z,7.85
2023-04-22T04:01:52.553Z,7.25
2023-04-22T04:04:23.691Z,7.68
2023-04-22T04:06:56.411Z,7.45
2023-04-22T04:09:22.842Z,7.18
2023-04-22T04:11:49.707Z,6.88
2023-04-22T04:14:17.586Z,7.35
2023-04-22T04:16:48.237Z,7.78
2023-04-22T04:19:23.543Z,8.20
2023-04-22T04:21:51.383Z,7.15
2023-04-22T04:24:18.304Z,6.93
2023-04-22T04:26:48.882Z,6.97
2023-04-22T04:29:20.460Z,6.95
2023-04-22T04:31:56.438Z,7.10
2023-04-22T04:34:23.624Z,7.20
2023-04-22T04:36:50.563Z,6.80
2023-04-22T04:39:23.441Z,7.43
2023-04-22T04:41:50.028Z,7.40
2023-04-22T04:44:16.784Z,7.68
2023-04-22T04:46:44.214Z,7.03
2023-04-22T04:49:12.501Z,6.82
2023-04-22T04:51:53.258Z,7.05
2023-04-22T04:54:19.958Z,7.18
2023-04-22T04:56:46.682Z,7.93
2023-04-22T04:59:13.878Z,7.25
2023-04-22T05:01:41.564Z,7.32
2023-04-22T05:04:11.672Z,7.15
2023-04-22T05:06:41.156Z,7.15
2023-04-22T05:09:08.392Z,6.80
2023-04-22T05:11:35.858Z,7.70
2023-04-22T05:14:08.747Z,7.13
2023-04-22T05:16:39.730Z,6.93
2023-04-22T05:19:07.177Z,7.68
2023-04-22T05:21:35.179Z,7.38
2023-04-22T05:24:01.802Z,6.65
2023-04-22T05:26:29.471Z,7.00
2023-04-22T05:28:56.108Z,6.85
2023-04-22T05:31:22.604Z,7.10
2023-04-22T05:33:49.272Z,6.22
2023-04-22T05:36:16.518Z,6.10
2023-04-22T05:38:45.701Z,6.15
2023-04-22T05:41:12.463Z,6.18
2023-04-22T05:43:39.098Z,5.90
2023-04-22T05:46:10.879Z,6.30
2023-04-22T05:48:39.758Z,6.07
2023-04-22T05:51:09.875Z,6.07
2023-04-22T05:53:36.573Z,6.43
2023-04-22T05:56:03.318Z,6.00
2023-04-22T05:58:29.793Z,6.35
2023-04-22T06:01:10.196Z,6.07
2023-04-22T06:03:59.719Z,5.68
2023-04-22T06:06:27.385Z,5.57
2023-04-22T06:08:53.991Z,6.10
2023-04-22T06:11:20.896Z,7.10
2023-04-22T06:13:47.398Z,6.32
2023-04-22T06:16:14.710Z,5.65
2023-04-22T06:18:43.301Z,6.10
2023-04-22T06:21:11.807Z,6.22
2023-04-22T06:23:38.337Z,5.25
2023-04-22T06:26:05.043Z,5.68
2023-04-22T06:28:32.425Z,5.43
2023-04-22T06:31:04.224Z,5.85
2023-04-22T06:33:30.834Z,5.72
2023-04-22T06:35:57.306Z,5.60
2023-04-22T06:38:23.990Z,6.22
2023-04-22T06:41:11.653Z,6.28
2023-04-22T06:43:42.751Z,7.28
2023-04-22T06:46:09.627Z,6.05
2023-04-22T06:48:38.926Z,6.65
2023-04-22T06:51:30.933Z,6.95
2023-04-22T06:53:58.772Z,6.57
2023-04-22T06:56:25.694Z,5.95
2023-04-22T06:58:52.148Z,5.07
2023-04-22T07:01:19.077Z,4.22
2023-04-22T07:03:46.632Z,4.18
2023-04-22T07:06:14.805Z,3.53
2023-04-22T07:08:41.841Z,3.45
2023-04-22T07:11:11.933Z,3.28
2023-04-22T07:13:46.447Z,2.83
2023-04-22T07:16:13.215Z,2.88
2023-04-22T07:18:39.893Z,2.58
2023-04-22T07:21:06.307Z,2.63
2023-04-22T07:23:32.995Z,2.70
2023-04-22T07:25:59.532Z,2.60
2023-04-22T07:28:26.319Z,2.60
2023-04-22T07:30:53.986Z,2.50
2023-04-22T07:33:20.389Z,2.53
2023-04-22T07:35:47.570Z,2.55
2023-04-22T07:38:14.732Z,2.65
2023-04-22T07:40:41.195Z,2.47
2023-04-22T07:43:07.842Z,2.60
2023-04-22T07:45:34.447Z,2.30
2023-04-22T07:48:01.244Z,2.17
2023-04-22T07:50:27.808Z,2.63
2023-04-22T07:52:54.235Z,2.50
2023-04-22T07:55:20.650Z,2.55
2023-04-22T07:57:47.342Z,2.10
2023-04-22T08:00:14.573Z,2.50
2023-04-22T08:02:41.456Z,2.42
2023-04-22T08:05:08.122Z,2.20
2023-04-22T08:07:34.542Z,2.22
2023-04-22T08:10:01.126Z,2.67
2023-04-22T08:12:28.276Z,2.70
2023-04-22T08:14:54.689Z,2.60
2023-04-22T08:17:22.069Z,2.35
2023-04-22T08:19:49.188Z,2.28
2023-04-22T08:22:17.661Z,2.42
2023-04-22T08:24:44.416Z,2.35
2023-04-22T08:27:11.034Z,2.50
2023-04-22T08:29:38.025Z,3.03
2023-04-22T08:32:04.700Z,2.63
2023-04-22T08:34:31.899Z,2.80
2023-04-22T08:36:58.508Z,3.30
2023-04-22T08:39:25.096Z,2.90
2023-04-22T08:41:51.587Z,2.90
2023-04-22T08:44:19.386Z,2.75
2023-04-22T08:46:46.969Z,2.83
2023-04-22T08:49:16.969Z,2.80
2023-04-22T08:51:44.457Z,2.75
2023-04-22T08:54:12.121Z,3.05
2023-04-22T08:56:43.084Z,3.38
2023-04-22T08:59:11.527Z,3.13
2023-04-22T09:01:42.055Z,2.45
2023-04-22T09:04:11.293Z,2.60
2023-04-22T09:06:38.969Z,2.40
2023-04-22T09:09:07.858Z,2.67
2023-04-22T09:11:35.647Z,2.75
2023-04-22T09:14:04.213Z,2.50
2023-04-22T09:16:31.926Z,2.40
2023-04-22T09:18:59.058Z,2.35
2023-04-22T09:21:28.017Z,2.25
2023-04-22T09:23:56.379Z,2.80
2023-04-22T09:26:24.803Z,2.85
2023-04-22T09:28:53.429Z,2.50
2023-04-22T09:31:21.641Z,2.30
2023-04-22T09:33:50.784Z,2.88
2023-04-22T09:36:17.261Z,2.60
2023-04-22T09:38:59.449Z,2.63
2023-04-22T09:41:30.509Z,2.30
2023-04-22T09:44:01.740Z,2.58
2023-04-22T09:46:29.702Z,2.30
2023-04-22T09:48:59.226Z,2.45
2023-04-22T09:51:27.259Z,2.67
2023-04-22T09:54:01.876Z,2.53
2023-04-22T09:56:52.246Z,2.30
2023-04-22T09:59:27.970Z,2.28
2023-04-22T10:02:00.525Z,2.13
2023-04-22T10:04:27.199Z,2.10
2023-04-22T10:06:54.950Z,2.00
2023-04-22T10:09:23.155Z,2.50
2023-04-22T10:11:52.218Z,2.50
2023-04-22T10:14:18.601Z,2.70
2023-04-22T10:16:46.988Z,2.33
2023-04-22T10:19:20.861Z,2.03
2023-04-22T10:21:50.659Z,2.30
2023-04-22T10:24:19.499Z,2.55
2023-04-22T10:26:59.769Z,2.30
2023-04-22T10:29:34.697Z,2.35
2023-04-22T10:32:11.354Z,2.13
2023-04-22T10:34:40.856Z,2.70
2023-04-22T10:37:09.542Z,2.40
2023-04-22T10:39:36.191Z,2.70
2023-04-22T10:42:02.611Z,2.60
2023-04-22T10:44:44.637Z,2.55
2023-04-22T10:47:11.097Z,2.90
2023-04-22T10:49:37.751Z,2.78
2023-04-22T10:52:07.700Z,2.10
2023-04-22T10:54:37.135Z,2.20
2023-04-22T10:57:09.031Z,2.30
2023-04-22T10:59:45.667Z,2.00
2023-04-22T11:02:14.297Z,2.30
2023-04-22T11:04:40.791Z,2.35
2023-04-22T11:07:30.544Z,2.40
2023-04-22T11:10:07.805Z,2.00
2023-04-22T11:12:41.828Z,1.90
2023-04-22T11:15:10.420Z,2.20
2023-04-22T11:17:38.180Z,1.92
2023-04-22T11:20:07.059Z,2.20
2023-04-22T11:22:38.165Z,2.22
2023-04-22T11:25:05.873Z,2.30
2023-04-22T11:27:32.753Z,2.08
2023-04-22T11:30:09.584Z,2.00
2023-04-22T11:32:37.699Z,2.13
2023-04-22T11:35:06.899Z,2.00
2023-04-22T11:37:45.228Z,2.05
2023-04-22T11:40:29.982Z,2.15
2023-04-22T11:42:59.646Z,1.95
2023-04-22T11:45:27.123Z,2.00
2023-04-22T11:47:54.029Z,2.03
2023-04-22T11:50:28.550Z,1.77
2023-04-22T11:53:00.909Z,2.25
2023-04-22T11:55:33.972Z,2.10
2023-04-22T12:01:02.464Z,2.00
2023-04-22T12:03:30.383Z,1.83
2023-04-22T12:05:59.170Z,1.80
2023-04-22T12:08:31.369Z,1.98
2023-04-22T12:11:01.179Z,1.93
2023-04-22T12:13:30.147Z,1.83
2023-04-22T12:16:01.211Z,1.50
2023-04-22T12:18:31.783Z,1.80
2023-04-22T12:21:08.978Z,1.80
2023-04-22T12:23:48.232Z,1.85
2023-04-22T12:26:20.190Z,2.17
2023-04-22T12:28:47.278Z,2.10
2023-04-22T12:31:14.645Z,2.10
2023-04-22T12:33:41.757Z,1.80
2023-04-22T12:36:08.277Z,1.85
2023-04-22T12:38:35.201Z,1.90
2023-04-22T12:41:02.732Z,1.85
2023-04-22T12:43:29.397Z,2.10
2023-04-22T12:45:56.049Z,1.80
2023-04-22T12:48:22.500Z,2.10
2023-04-22T12:50:48.904Z,1.92
2023-04-22T12:53:16.145Z,1.95
2023-04-22T12:55:45.333Z,1.85
2023-04-22T12:58:12.503Z,1.83
2023-04-22T13:00:39.042Z,2.00
2023-04-22T13:03:05.664Z,1.85
2023-04-22T13:05:32.401Z,2.17
2023-04-22T13:08:06.545Z,1.52
2023-04-22T13:10:34.053Z,2.03
2023-04-22T13:13:15.949Z,2.30
2023-04-22T13:15:45.036Z,2.10
2023-04-22T13:18:11.552Z,2.33
2023-04-22T13:20:38.465Z,2.15
2023-04-22T13:23:05.133Z,2.22
2023-04-22T13:25:32.062Z,2.38
2023-04-22T13:27:58.554Z,2.08
2023-04-22T13:30:24.980Z,1.98
2023-04-22T13:32:51.836Z,2.20
2023-04-22T13:35:18.397Z,2.08
2023-04-22T13:37:45.990Z,2.28
2023-04-22T13:40:12.641Z,2.30
2023-04-22T13:42:39.283Z,2.38
2023-04-22T13:45:07.007Z,2.25
2023-04-22T13:47:33.646Z,2.10
2023-04-22T13:50:01.560Z,2.40
2023-04-22T13:52:28.113Z,2.03
2023-04-22T13:54:54.767Z,1.88
2023-04-22T13:57:21.922Z,2.10
2023-04-22T13:59:50.628Z,2.20
2023-04-22T14:02:17.574Z,1.98
2023-04-22T14:04:44.158Z,2.05
2023-04-22T14:07:11.056Z,2.00
2023-04-22T14:09:37.556Z,2.10
2023-04-22T14:12:05.251Z,1.20
2023-04-22T14:14:31.848Z,1.08
2023-04-22T14:16:58.775Z,1.30
2023-04-22T14:19:25.992Z,1.30
2023-04-22T14:21:52.418Z,1.00
2023-04-22T14:24:19.458Z,1.52
2023-04-22T14:26:45.919Z,1.30
2023-04-22T14:29:13.885Z,1.50
2023-04-22T14:31:40.432Z,1.77
2023-04-22T14:34:06.842Z,1.27
2023-04-22T14:36:33.288Z,1.63
2023-04-22T14:38:59.663Z,1.50
2023-04-22T14:41:26.429Z,1.73
2023-04-22T14:43:53.124Z,1.75
2023-04-22T14:46:19.599Z,1.40
2023-04-22T14:48:46.000Z,1.38
2023-04-22T14:51:12.472Z,1.50
2023-04-22T14:53:39.041Z,1.70
2023-04-22T14:56:05.582Z,1.85
2023-04-22T14:58:32.069Z,1.70
2023-04-22T15:00:59.812Z,1.73
2023-04-22T15:03:26.855Z,1.65
2023-04-22T15:05:54.840Z,1.73
2023-04-22T15:08:21.573Z,1.90
2023-04-22T15:10:48.000Z,1.58
2023-04-22T15:13:14.430Z,1.98
2023-04-22T15:15:40.858Z,2.10
2023-04-22T15:18:07.359Z,1.77
2023-04-22T15:20:33.892Z,1.75
2023-04-22T15:23:01.858Z,1.95
2023-04-22T15:25:28.266Z,1.80
2023-04-22T15:27:56.724Z,1.83
2023-04-22T15:30:23.587Z,2.00
2023-04-22T15:32:50.109Z,1.83
2023-04-22T15:35:16.747Z,1.70
2023-04-22T15:37:45.199Z,1.73
2023-04-22T15:40:11.897Z,2.13
2023-04-22T15:42:38.387Z,2.20
2023-04-22T15:45:05.775Z,1.58
2023-04-22T15:47:35.167Z,2.47
2023-04-22T15:50:08.644Z,1.73
2023-04-22T15:52:37.424Z,1.90
2023-04-22T15:55:06.310Z,1.52
2023-04-22T15:57:34.933Z,1.90
2023-04-22T16:00:12.410Z,2.00
2023-04-22T16:02:44.090Z,1.98
2023-04-22T16:05:14.402Z,2.58
2023-04-22T16:07:41.140Z,2.30
2023-04-22T16:10:08.876Z,2.17
2023-04-22T16:12:35.415Z,1.90
2023-04-22T16:15:02.218Z,2.03
2023-04-22T16:17:29.630Z,2.15
2023-04-22T16:19:56.162Z,1.90
2023-04-22T16:22:22.592Z,2.05
2023-04-22T16:24:49.055Z,1.95
2023-04-22T16:27:17.935Z,2.17
2023-04-22T16:29:44.497Z,1.90
2023-04-22T16:32:11.414Z,2.28
2023-04-22T16:34:38.404Z,2.20
2023-04-22T16:37:05.334Z,2.00
2023-04-22T16:39:31.895Z,2.40
2023-04-22T16:41:58.782Z,2.80
2023-04-22T16:44:25.161Z,2.60
2023-04-22T16:46:51.631Z,2.20
2023-04-22T16:49:18.044Z,1.90
2023-04-22T16:51:44.508Z,1.92
2023-04-22T16:54:11.179Z,1.45
2023-04-22T16:56:37.677Z,1.90
2023-04-22T16:59:04.170Z,1.70
2023-04-22T17:01:31.240Z,1.70
2023-04-22T17:03:57.942Z,1.73
2023-04-22T17:06:24.813Z,1.77
2023-04-22T17:08:52.440Z,2.22
2023-04-22T17:11:18.908Z,2.03
2023-04-22T17:13:45.604Z,2.00
2023-04-22T17:16:12.167Z,1.50
2023-04-22T17:18:38.680Z,1.85
2023-04-22T17:21:05.190Z,1.92
2023-04-22T17:23:31.708Z,1.85
2023-04-22T17:25:59.318Z,2.03
2023-04-22T17:28:25.707Z,2.30
2023-04-22T17:30:52.305Z,2.15
2023-04-22T17:33:18.827Z,2.35
2023-04-22T17:35:45.257Z,1.70
2023-04-22T17:38:11.635Z,1.90
2023-04-22T17:40:38.692Z,1.73
2023-04-22T17:43:05.051Z,2.00
2023-04-22T17:45:31.454Z,1.75
2023-04-22T17:47:57.857Z,2.08
2023-04-22T17:50:24.600Z,2.13
2023-04-22T17:52:51.099Z,2.10
2023-04-22T17:55:17.700Z,2.10
2023-04-22T17:57:45.237Z,2.03
2023-04-22T18:00:14.369Z,2.20
2023-04-22T18:02:42.015Z,2.33
2023-04-22T18:05:09.112Z,2.30
2023-04-22T18:07:35.603Z,2.72
2023-04-22T18:10:02.094Z,2.83
2023-04-22T18:12:30.761Z,2.63
2023-04-22T18:14:58.189Z,2.47
2023-04-22T18:17:24.642Z,2.67
2023-04-22T18:19:54.425Z,2.67
2023-04-22T18:22:26.036Z,2.40
2023-04-22T18:24:52.809Z,2.90
2023-04-22T18:27:19.302Z,2.75
2023-04-22T18:29:47.779Z,2.78
2023-04-22T18:32:16.723Z,2.85
2023-04-22T18:34:43.513Z,2.30
2023-04-22T18:37:10.107Z,2.80
2023-04-22T18:39:38.384Z,2.70
2023-04-22T18:42:06.028Z,2.72
2023-04-22T18:44:32.432Z,2.58
2023-04-22T18:46:59.002Z,2.40
2023-04-22T18:49:26.213Z,3.08
2023-04-22T18:51:52.646Z,2.67
2023-04-22T18:54:19.800Z,2.47
2023-04-22T18:56:46.243Z,2.95
2023-04-22T18:59:12.941Z,2.25
2023-04-22T19:01:39.451Z,2.40
2023-04-22T19:04:07.581Z,2.53
2023-04-22T19:06:34.163Z,2.55
2023-04-22T19:09:01.104Z,3.10
2023-04-22T19:11:27.736Z,2.88
2023-04-22T19:13:54.158Z,2.70
2023-04-22T19:16:20.782Z,2.60
2023-04-22T19:18:47.277Z,2.97
2023-04-22T19:21:13.680Z,3.00
2023-04-22T19:23:41.464Z,3.15
2023-04-22T19:26:09.526Z,3.40
2023-04-22T19:28:36.604Z,2.83
2023-04-22T19:31:04.872Z,3.33
2023-04-22T19:33:31.883Z,3.00
2023-04-22T19:35:58.278Z,4.18
2023-04-22T19:38:24.723Z,4.68
2023-04-22T19:40:51.181Z,4.70
2023-04-22T19:43:18.990Z,4.60
2023-04-22T19:45:48.774Z,6.47
2023-04-22T19:48:15.639Z,6.45
2023-04-22T19:50:43.457Z,6.57
2023-04-22T19:53:10.514Z,7.70
2023-04-22T19:55:38.065Z,9.45
2023-04-22T19:58:05.072Z,12.52
2023-04-22T20:00:32.846Z,11.18
2023-04-22T20:02:59.688Z,11.43
2023-04-22T20:05:27.305Z,12.00
2023-04-22T20:07:57.949Z,13.35
2023-04-22T20:10:24.838Z,13.00
2023-04-22T20:12:51.752Z,15.63
2023-04-22T20:15:18.878Z,15.75
2023-04-22T20:17:45.861Z,19.08
2023-04-22T20:20:14.952Z,21.10
2023-04-22T20:22:42.604Z,20.85
2023-04-22T20:25:13.895Z,21.40
2023-04-22T20:27:41.117Z,21.27
2023-04-22T20:30:08.542Z,21.60
2023-04-22T20:32:36.361Z,20.65
2023-04-22T20:35:04.332Z,21.13
2023-04-22T20:37:33.842Z,20.90
2023-04-22T20:40:04.338Z,21.05
2023-04-22T20:42:32.991Z,19.73
2023-04-22T20:44:59.414Z,19.27
2023-04-22T20:47:25.928Z,19.15
2023-04-22T20:49:52.614Z,20.42
2023-04-22T20:52:19.231Z,19.08
2023-04-22T20:54:45.901Z,20.15
2023-04-22T20:57:13.076Z,20.13
2023-04-22T20:59:39.909Z,20.10
2023-04-22T21:02:07.367Z,20.05
2023-04-22T21:04:34.500Z,20.63
2023-04-22T21:07:03.971Z,21.42
2023-04-22T21:09:32.450Z,20.98
2023-04-22T21:11:59.582Z,20.35
2023-04-22T21:14:26.768Z,21.27
2023-04-22T21:17:00.238Z,22.77
2023-04-22T21:19:38.015Z,23.90
2023-04-22T21:22:05.962Z,23.80
2023-04-22T21:24:34.700Z,24.17
2023-04-22T21:27:01.687Z,24.65
2023-04-22T21:29:28.816Z,23.40
2023-04-22T21:32:08.109Z,23.02
2023-04-22T21:34:35.662Z,24.60
2023-04-22T21:37:02.400Z,22.65
2023-04-22T21:39:29.437Z,23.27
2023-04-22T21:41:55.896Z,23.90
2023-04-22T21:44:22.305Z,24.13
2023-04-22T21:46:48.786Z,25.38
2023-04-22T21:49:15.572Z,25.13
2023-04-22T21:51:42.161Z,24.42
2023-04-22T21:54:08.583Z,26.33
2023-04-22T21:56:35.901Z,26.95
2023-04-22T21:59:02.353Z,26.48
2023-04-22T22:01:28.805Z,26.92
2023-04-22T22:03:55.477Z,28.02
2023-04-22T22:06:22.061Z,28.05
2023-04-22T22:08:48.463Z,26.23
2023-04-22T22:11:27.676Z,27.90
2023-04-22T22:13:56.681Z,29.15
2023-04-22T22:16:23.381Z,27.20
2023-04-22T22:18:51.736Z,27.42
2023-04-22T22:21:18.348Z,28.13
2023-04-22T22:23:44.850Z,27.17
2023-04-22T22:26:11.307Z,28.13
2023-04-22T22:28:38.056Z,28.27
2023-04-22T22:31:04.541Z,27.23
2023-04-22T22:33:30.921Z,29.98
2023-04-22T22:35:57.347Z,29.08
2023-04-22T22:38:23.948Z,27.85
2023-04-22T22:40:50.803Z,29.65
2023-04-22T22:43:17.210Z,29.23
2023-04-22T22:45:43.661Z,28.55
2023-04-22T22:48:10.523Z,30.35
2023-04-22T22:50:37.238Z,30.88
2023-04-22T22:53:03.667Z,32.75
2023-04-22T22:55:30.189Z,31.38
2023-04-22T22:57:56.843Z,31.25
2023-04-22T23:00:23.272Z,32.08
2023-04-22T23:02:51.316Z,33.47
2023-04-22T23:05:18.185Z,34.25
2023-04-22T23:07:44.599Z,34.50
2023-04-22T23:10:11.112Z,37.17
2023-04-22T23:12:37.538Z,36.13
2023-04-22T23:15:05.323Z,37.25
2023-04-22T23:17:31.822Z,35.95
2023-04-22T23:20:01.180Z,36.92
2023-04-22T23:22:28.349Z,36.35
2023-04-22T23:24:55.313Z,38.08
2023-04-22T23:27:22.597Z,37.53
2023-04-22T23:29:49.432Z,36.08
2023-04-22T23:32:19.802Z,36.05
2023-04-22T23:34:49.392Z,34.55
2023-04-22T23:37:16.113Z,35.63
2023-04-22T23:39:43.130Z,33.92
2023-04-22T23:42:10.328Z,33.97
2023-04-22T23:44:36.832Z,35.22
2023-04-22T23:47:03.542Z,34.72
2023-04-22T23:49:30.186Z,34.00
2023-04-22T23:51:56.668Z,31.98
2023-04-22T23:54:23.221Z,32.92
2023-04-22T23:56:49.990Z,35.22
2023-04-22T23:59:16.606Z,34.30
